Data for 07/15/2014

Time Sea-Level Adjusted Pressure Absolute Pressure Temperature Relative Humidity Dew Point   
(mb) (inHg) (mb) (inHg) (C) (F) (%) (C) (F)
00:05 1021 30.15 850 25.1 17.7 63.9 37 2.9 37.2
00:10 1021 30.15 850 25.1 17.6 63.8 37 3 37.4
00:15 1021 30.15 850 25.1 17.6 63.6 37 2.7 36.9
00:20 1021 30.15 850 25.1 17.6 63.6 37 2.7 36.9
00:25 1021 30.15 850 25.1 17.5 63.5 37 2.7 36.9
00:30 1021 30.15 850 25.1 17.5 63.4 37 2.7 36.8
00:35 1021 30.15 850 25.1 17.4 63.3 37 2.7 36.8
00:40 1021 30.15 850 25.1 17.3 63.2 37 2.6 36.6
00:45 1021 30.15 850 25.1 17.3 63.2 37 2.6 36.8
00:50 1021 30.15 850 25.1 17.2 63 37 2.5 36.5
00:55 1021 30.15 850 25.1 17.2 62.9 37 2.4 36.4
01:00 1021 30.15 850 25.1 17.1 62.8 37 2.4 36.3
01:05 1021 30.15 850 25.1 17 62.6 38 2.6 36.6
01:10 1021 30.15 850 25.1 17 62.5 37 2.3 36.1
01:15 1021 30.15 850 25.1 17 62.7 37 2.3 36.1
01:20 1021 30.15 850 25.1 17 62.7 37 2.2 36
01:25 1021 30.15 850 25.1 17.1 62.7 36 2.2 35.9
01:30 1021 30.15 851 25.13 17 62.7 37 2.2 36
01:35 1021 30.15 851 25.13 17 62.6 37 2.2 36
01:40 1021 30.15 851 25.13 17 62.6 37 2.2 35.9
01:45 1021 30.15 851 25.13 16.9 62.5 37 2.3 36.2
01:50 1022 30.18 851 25.13 16.8 62.3 38 2.4 36.3
01:55 1022 30.18 851 25.13 16.8 62.2 38 2.3 36.2
02:00 1022 30.18 851 25.13 16.7 62 38 2.5 36.4
02:05 1022 30.18 851 25.13 16.5 61.7 39 2.5 36.4
02:10 1022 30.18 851 25.13 16.4 61.5 39 2.5 36.5
02:15 1022 30.18 851 25.13 16.3 61.4 39 2.6 36.6
02:20 1022 30.18 851 25.13 16.2 61.2 40 2.6 36.6
02:25 1022 30.18 851 25.13 16.1 60.9 40 2.6 36.7
02:30 1022 30.18 851 25.13 15.9 60.6 40 2.6 36.7
02:35 1022 30.18 851 25.13 15.8 60.5 40 2.4 36.4
02:40 1022 30.18 851 25.13 15.9 60.6 40 2.5 36.5
02:45 1022 30.18 851 25.13 15.8 60.5 40 2.5 36.4
02:50 1022 30.18 851 25.13 15.8 60.5 41 2.5 36.6
02:55 1022 30.18 851 25.13 15.8 60.4 40 2.3 36.2
03:00 1022 30.18 851 25.13 15.9 60.7 40 2.3 36.1
03:05 1022 30.18 852 25.16 15.9 60.6 39 2.2 36
03:10 1022 30.18 852 25.16 15.9 60.7 40 2.3 36.1
03:15 1023 30.21 852 25.16 16 60.7 39 2.2 36
03:20 1023 30.21 852 25.16 15.9 60.7 39 2.2 35.9
03:25 1023 30.21 852 25.16 15.9 60.7 39 2 35.6
03:30 1022 30.18 852 25.16 15.9 60.6 39 2 35.6
03:35 1023 30.21 852 25.16 15.9 60.6 39 2.1 35.8
03:40 1023 30.21 852 25.16 15.8 60.5 40 2.2 36
03:45 1023 30.21 852 25.16 15.7 60.2 40 2.1 35.8
03:50 1023 30.21 852 25.16 15.6 60.1 40 2.2 35.9
03:55 1023 30.21 852 25.16 15.4 59.8 42 2.7 36.8
04:00 1023 30.21 852 25.16 15 59.1 43 2.6 36.7
04:05 1023 30.21 852 25.16 14.9 58.7 44 2.7 36.8
04:10 1023 30.21 852 25.16 14.8 58.7 44 2.6 36.7
04:15 1023 30.21 852 25.16 14.8 58.6 44 2.6 36.8
04:20 1023 30.21 852 25.16 14.7 58.4 44 2.6 36.7
04:25 1023 30.21 852 25.16 14.7 58.5 43 2.5 36.5
04:30 1023 30.21 852 25.16 14.6 58.3 44 2.6 36.7
04:35 1023 30.21 852 25.16 14.6 58.2 44 2.5 36.5
04:40 1023 30.21 852 25.16 14.6 58.4 44 2.7 36.8
04:45 1023 30.21 852 25.16 14.6 58.2 45 2.8 37
04:50 1023 30.21 852 25.16 14.5 58.1 44 2.5 36.6
04:55 1023 30.21 852 25.16 14.6 58.3 44 2.5 36.5
05:00 1023 30.21 852 25.16 14.7 58.5 43 2.5 36.5
05:05 1023 30.21 852 25.16 14.8 58.6 44 2.7 36.9
05:10 1022 30.18 852 25.16 14.7 58.5 46 3.3 37.9
05:15 1022 30.18 852 25.16 14.6 58.2 45 3 37.4
05:20 1022 30.18 852 25.16 14.7 58.4 44 2.8 37
05:25 1022 30.18 852 25.16 14.8 58.6 43 2.5 36.6
05:30 1022 30.18 852 25.16 14.8 58.7 43 2.6 36.7
05:35 1022 30.18 852 25.16 14.7 58.5 44 2.7 36.9
05:40 1022 30.18 852 25.16 14.8 58.6 43 2.4 36.4
05:45 1022 30.18 851 25.13 15 59 43 2.6 36.6
05:50 1022 30.18 851 25.13 14.9 58.9 44 2.8 37.1
05:55 1022 30.18 851 25.13 14.9 58.9 44 2.8 37
06:00 1022 30.18 851 25.13 15.2 59.3 43 2.8 37.1
06:05 1022 30.18 851 25.13 15.2 59.4 43 2.9 37.2
06:10 1022 30.18 851 25.13 15.3 59.6 44 3.2 37.7
06:15 1022 30.18 851 25.13 15.3 59.5 44 3.3 37.9
06:20 1022 30.18 851 25.13 15.2 59.4 44 3.2 37.7
06:25 1022 30.18 851 25.13 15.4 59.6 44 3.3 37.9
06:30 1022 30.18 851 25.13 15.1 59.2 45 3.4 38.1
06:35 1022 30.18 851 25.13 15.1 59.1 46 3.6 38.5
06:40 1022 30.18 852 25.16 14.9 58.9 47 3.7 38.7
06:45 1022 30.18 851 25.13 14.9 58.7 47 3.8 38.9
06:50 1022 30.18 851 25.13 14.9 58.8 47 3.8 38.9
06:55 1022 30.18 851 25.13 15 58.9 47 3.9 39
07:00 1022 30.18 851 25.13 15.1 59.1 48 4.2 39.6
07:05 1022 30.18 851 25.13 15.2 59.3 49 4.5 40.1
07:10 1022 30.18 851 25.13 15.2 59.3 49 4.6 40.3
07:15 1022 30.18 851 25.13 15.3 59.5 49 4.7 40.4
07:20 1022 30.18 851 25.13 15.3 59.5 50 5.1 41.2
07:25 1022 30.18 851 25.13 15.4 59.8 51 5.5 41.9
07:30 1022 30.18 851 25.13 16 60.8 52 6.4 43.5
07:35 1022 30.18 852 25.16 15.8 60.4 54 6.5 43.7
07:40 1022 30.18 852 25.16 15.7 60.2 52 6 42.8
07:45 1022 30.18 852 25.16 15.6 60.1 55 6.8 44.2
07:50 1022 30.18 852 25.16 16.1 61 54 6.8 44.3
07:55 1022 30.18 852 25.16 16.1 61.1 54 7.1 44.7
08:00 1022 30.18 852 25.16 16.1 61 54 6.9 44.4
08:05 1022 30.18 852 25.16 16.6 61.9 53 7.1 44.8
08:10 1022 30.18 852 25.16 17.5 63.6 49 6.9 44.4
08:15 1022 30.18 852 25.16 17.7 63.8 53 7.9 46.3
08:20 1022 30.18 852 25.16 17.9 64.2 54 8.5 47.3
08:25 1022 30.18 852 25.16 17.5 63.5 56 8.7 47.6
08:30 1023 30.21 852 25.16 17.8 64.1 55 8.7 47.6
08:35 1023 30.21 852 25.16 17.5 63.5 56 8.8 47.8
08:40 1022 30.18 852 25.16 17.3 63.1 56 8.6 47.5
08:45 1022 30.18 852 25.16 17.1 62.8 54 7.7 45.9
08:50 1022 30.18 852 25.16 17 62.5 56 8.2 46.7
08:55 1022 30.18 852 25.16 17.1 62.7 55 8.1 46.6
09:00 1022 30.18 852 25.16 17.4 63.2 53 7.7 45.8
09:05 1022 30.18 852 25.16 17.1 62.7 56 8.2 46.8
09:10 1022 30.18 852 25.16 17 62.6 53 7.3 45.2
09:15 1022 30.18 852 25.16 17.5 63.4 51 7.2 45
09:20 1022 30.18 852 25.16 18 64.3 49 7.2 45
09:25 1022 30.18 852 25.16 18.5 65.3 49 7.8 46.1
09:30 1022 30.18 852 25.16 17.4 63.3 54 8.1 46.6
09:35 1022 30.18 852 25.16 17.1 62.7 56 8.4 47.1
09:40 1022 30.18 852 25.16 17.1 62.8 55 8.2 46.8
09:45 1022 30.18 852 25.16 17.1 62.7 55 8.1 46.6
09:50 1022 30.18 852 25.16 18.2 64.7 52 8.3 46.9
09:55 1022 30.18 852 25.16 18.1 64.5 51 7.8 46.1
10:00 1022 30.18 851 25.13 18.2 64.7 51 8 46.4
10:05 1022 30.18 851 25.13 18.3 64.9 51 8.2 46.8
10:10 1022 30.18 851 25.13 18.5 65.4 48 7.5 45.4
10:15 1022 30.18 851 25.13 18.9 66 49 8 46.4
10:20 1022 30.18 851 25.13 20 67.9 45 7.9 46.1
10:25 1022 30.18 851 25.13 20 68 46 8.2 46.8
10:30 1022 30.18 851 25.13 20.9 69.5 42 7.7 45.9
10:35 1022 30.18 851 25.13 21.6 70.8 42 8.2 46.8
10:40 1022 30.18 851 25.13 20.9 69.6 46 9 48.2
10:45 1022 30.18 851 25.13 20.7 69.2 45 8.4 47.1
10:50 1022 30.18 851 25.13 20.8 69.4 43 7.8 46.1
10:55 1022 30.18 851 25.13 20.8 69.4 42 7.6 45.8
11:00 1022 30.18 851 25.13 21.1 69.9 41 7.5 45.6
11:05 1022 30.18 851 25.13 21.3 70.4 41 7.7 45.8
11:10 1022 30.18 851 25.13 20.9 69.7 42 7.8 46
11:15 1022 30.18 851 25.13 21.4 70.6 40 7.5 45.6
11:20 1022 30.18 851 25.13 21.3 70.4 39 7.1 44.8
11:25 1022 30.18 851 25.13 21.2 70.1 43 8.2 46.7
11:30 1022 30.18 851 25.13 21.6 70.9 39 7.1 44.7
11:35 1022 30.18 851 25.13 22 71.5 38 7.3 45.1
11:40 1021 30.15 851 25.13 22.4 72.3 37 7.1 44.7
11:45 1021 30.15 851 25.13 22.9 73.2 36 7.3 45.1
11:50 1021 30.15 851 25.13 23 73.3 36 7.3 45.2
11:55 1021 30.15 851 25.13 23.4 74 37 7.9 46.2
12:00 1021 30.15 851 25.13 23.1 73.6 35 7.2 44.9
12:05 1021 30.15 850 25.1 22.9 73.2 36 7.2 44.9
12:10 1021 30.15 850 25.1 23.3 73.9 37 7.9 46.2
12:15 1021 30.15 850 25.1 23 73.4 36 7.4 45.3
12:20 1021 30.15 850 25.1 23.3 74 37 7.9 46.2
12:25 1021 30.15 850 25.1 23.2 73.7 36 7.4 45.4
12:30 1021 30.15 850 25.1 23.1 73.6 36 7.4 45.3
12:35 1021 30.15 850 25.1 24.1 75.3 34 7.3 45.2
12:40 1021 30.15 850 25.1 23.8 74.9 34 7.5 45.4
12:45 1021 30.15 850 25.1 23.6 74.4 34 6.9 44.4
12:50 1021 30.15 850 25.1 24.3 75.8 34 7.6 45.7
12:55 1021 30.15 850 25.1 23.8 74.8 35 7.7 45.9
13:00 1021 30.15 850 25.1 24.7 76.4 33 7.7 45.9
13:05 1021 30.15 850 25.1 25.6 78.1 33 8.4 47.1
13:10 1021 30.15 850 25.1 25.4 77.7 34 8.6 47.4
13:15 1021 30.15 850 25.1 24 75.3 38 9.1 48.4
13:20 1021 30.15 850 25.1 24.5 76.1 34 7.9 46.2
13:25 1021 30.15 850 25.1 24.3 75.8 36 8.6 47.5
13:30 1021 30.15 850 25.1 24.2 75.6 35 8.1 46.6
13:35 1021 30.15 850 25.1 24.6 76.2 35 8.4 47.1
13:40 1021 30.15 850 25.1 24.1 75.4 36 8.4 47.1
13:45 1021 30.15 850 25.1 23.9 74.9 37 8.6 47.5
13:50 1021 30.15 850 25.1 23.4 74.1 37 8.1 46.6
13:55 1021 30.15 850 25.1 23.5 74.3 38 8.5 47.2
14:00 1021 30.15 850 25.1 23.2 73.8 40 9.2 48.5
14:05 1021 30.15 850 25.1 23 73.3 40 9 48.2
14:10 1021 30.15 850 25.1 22.9 73.2 41 9.3 48.7
14:15 1021 30.15 850 25.1 22.7 72.8 42 9.3 48.8
14:20 1021 30.15 850 25.1 22.2 72 44 9.4 49
14:25 1021 30.15 850 25.1 22.4 72.3 42 9 48.1
14:30 1021 30.15 850 25.1 22.4 72.3 42 8.9 48
14:35 1021 30.15 850 25.1 22.5 72.4 41 8.6 47.5
14:40 1021 30.15 850 25.1 22.5 72.5 41 8.7 47.7
14:45 1021 30.15 850 25.1 22.6 72.7 42 9.1 48.4
14:50 1021 30.15 850 25.1 22.8 73 42 9.3 48.7
14:55 1021 30.15 851 25.13 22.6 72.7 44 9.8 49.7
15:00 1021 30.15 850 25.1 22.5 72.5 43 9.4 48.9
15:05 1021 30.15 850 25.1 22.5 72.5 43 9.6 49.2
15:10 1021 30.15 851 25.13 22.3 72.2 47 10.8 51.4
15:15 1021 30.15 851 25.13 21.6 70.9 54 12.1 53.7
15:20 1022 30.18 851 25.13 20.4 68.7 59 12.3 54.2
15:25 1022 30.18 851 25.13 19.7 67.4 61 12.2 53.9
15:30 1022 30.18 851 25.13 18.9 66 63 11.7 53.1
15:35 1022 30.18 851 25.13 18.9 66 62 11.5 52.8
15:40 1022 30.18 851 25.13 18.7 65.6 63 11.7 53
15:45 1022 30.18 851 25.13 18.6 65.4 63 11.6 52.9
15:50 1022 30.18 852 25.16 18.7 65.6 65 12 53.6
15:55 1022 30.18 852 25.16 18.6 65.5 64 11.7 53
16:00 1022 30.18 852 25.16 18.4 65.1 66 11.9 53.5
16:05 1023 30.21 852 25.16 17.9 64.3 65 11.5 52.6
16:10 1022 30.18 852 25.16 17.5 63.4 68 11.6 52.9
16:15 1022 30.18 851 25.13 17.1 62.8 72 12.1 53.7
16:20 1022 30.18 851 25.13 16.6 61.9 73 11.7 53.1
16:25 1022 30.18 852 25.16 16.6 61.8 70 11.2 52.1
16:30 1023 30.21 852 25.16 16.1 61 74 11.5 52.7
16:35 1023 30.21 852 25.16 15.6 60 77 11.6 52.9
16:40 1023 30.21 852 25.16 15.5 59.9 77 11.5 52.7
16:45 1023 30.21 852 25.16 15.8 60.4 77 11.8 53.2
16:50 1023 30.21 852 25.16 15.9 60.5 72 10.9 51.7
16:55 1023 30.21 852 25.16 16.1 60.9 73 11.2 52.2
17:00 1023 30.21 852 25.16 16.2 61.1 73 11.4 52.5
17:05 1023 30.21 852 25.16 16.3 61.3 71 11 51.9
17:10 1022 30.18 852 25.16 16.6 61.8 72 11.6 52.9
17:15 1022 30.18 851 25.13 16.7 62.1 68 10.9 51.6
17:20 1022 30.18 851 25.13 16.3 61.4 70 10.9 51.7
17:25 1022 30.18 851 25.13 16.1 61.1 68 10.3 50.6
17:30 1022 30.18 851 25.13 16.2 61.1 67 10.1 50.3
17:35 1022 30.18 851 25.13 16.2 61.1 68 10.4 50.8
17:40 1022 30.18 851 25.13 16.2 61.1 70 10.8 51.5
17:45 1022 30.18 851 25.13 16.5 61.8 70 11.1 51.9
17:50 1022 30.18 851 25.13 17 62.6 67 10.9 51.5
17:55 1022 30.18 851 25.13 17.4 63.4 62 10.1 50.2
18:00 1022 30.18 851 25.13 17.5 63.6 62 10.2 50.4
18:05 1022 30.18 851 25.13 17.4 63.2 60 9.6 49.2
18:10 1022 30.18 851 25.13 17.3 63.1 61 9.9 49.8
18:15 1022 30.18 851 25.13 17.4 63.3 61 9.9 49.9
18:20 1022 30.18 851 25.13 17.2 63 61 9.9 49.7
18:25 1022 30.18 851 25.13 16.9 62.4 63 10 50
18:30 1022 30.18 851 25.13 16.8 62.2 62 9.5 49.2
18:35 1022 30.18 851 25.13 16.8 62.3 61 9.4 48.9
18:40 1022 30.18 851 25.13 17 62.5 61 9.6 49.3
18:45 1022 30.18 851 25.13 17 62.6 62 9.7 49.4
18:50 1022 30.18 851 25.13 16.8 62.2 63 9.9 49.7
18:55 1022 30.18 851 25.13 16.8 62.2 63 9.8 49.6
19:00 1022 30.18 851 25.13 16.8 62.2 65 10.3 50.5
19:05 1022 30.18 851 25.13 16.9 62.4 63 10 49.9
19:10 1022 30.18 851 25.13 16.9 62.5 62 9.7 49.4
19:15 1022 30.18 851 25.13 16.9 62.5 64 10.1 50.1
19:20 1022 30.18 851 25.13 16.9 62.3 63 9.8 49.6
19:25 1022 30.18 851 25.13 16.8 62.2 65 10.3 50.5
19:30 1022 30.18 851 25.13 16.6 61.9 65 10.1 50.1
19:35 1022 30.18 851 25.13 16.5 61.7 65 10 49.9
19:40 1022 30.18 851 25.13 16.4 61.6 67 10.3 50.6
19:45 1022 30.18 851 25.13 16.4 61.5 66 10.2 50.3
19:50 1022 30.18 851 25.13 16.3 61.4 68 10.5 50.8
19:55 1022 30.18 851 25.13 16.1 60.9 71 10.9 51.5
20:00 1022 30.18 851 25.13 15.6 60.2 75 11.2 52.2
20:05 1022 30.18 851 25.13 15.4 59.6 77 11.3 52.3
20:10 1022 30.18 851 25.13 15.3 59.5 76 11.1 52
20:15 1022 30.18 851 25.13 15.4 59.7 75 11.1 52
20:20 1022 30.18 851 25.13 15.6 60 75 11.3 52.3
20:25 1022 30.18 851 25.13 15.7 60.2 75 11.3 52.4
20:30 1022 30.18 851 25.13 15.7 60.2 76 11.5 52.7
20:35 1022 30.18 851 25.13 15.6 60.1 76 11.4 52.5
20:40 1022 30.18 851 25.13 15.5 59.8 77 11.5 52.7
20:45 1022 30.18 851 25.13 15.3 59.6 77 11.3 52.3
20:50 1022 30.18 851 25.13 15.2 59.4 77 11.2 52.2
20:55 1022 30.18 851 25.13 15.1 59.1 77 11.2 52.1
21:00 1022 30.18 851 25.13 15 59 77 11.1 52
21:05 1022 30.18 851 25.13 15 59 77 11 51.7
21:10 1022 30.18 851 25.13 15 58.9 76 10.8 51.5
21:15 1022 30.18 851 25.13 14.9 58.9 76 10.7 51.3
21:20 1022 30.18 851 25.13 14.9 58.8 75 10.6 51
21:25 1022 30.18 851 25.13 15 58.9 75 10.7 51.3
21:30 1022 30.18 852 25.16 15.1 59.1 77 11 51.8
21:35 1022 30.18 852 25.16 15.2 59.3 81 12 53.6
21:40 1022 30.18 852 25.16 15 58.9 82 11.9 53.4
21:45 1022 30.18 852 25.16 14.8 58.6 81 11.6 52.9
21:50 1022 30.18 852 25.16 14.7 58.4 83 11.9 53.5
21:55 1022 30.18 852 25.16 14.6 58.4 84 12 53.7
22:00 1022 30.18 852 25.16 14.6 58.2 85 12.1 53.8
22:05 1022 30.18 852 25.16 14.5 58.1 84 11.9 53.4
22:10 1022 30.18 852 25.16 14.5 58 86 12.1 53.7
22:15 1022 30.18 852 25.16 14.4 57.9 86 12.1 53.7
22:20 1022 30.18 851 25.13 14.3 57.7 83 11.4 52.5
22:25 1022 30.18 852 25.16 14.2 57.5 86 11.9 53.4
22:30 1022 30.18 852 25.16 14.1 57.3 89 12.3 54.1
22:35 1022 30.18 852 25.16 14 57.1 90 12.3 54.2
22:40 1022 30.18 851 25.13 14 57.1 90 12.3 54.2
22:45 1022 30.18 851 25.13 14 57.2 89 12.3 54.1
22:50 1022 30.18 851 25.13 14 57.1 89 12.2 54
22:55 1022 30.18 851 25.13 13.9 57 89 12 53.7
23:00 1022 30.18 852 25.16 13.9 57 88 11.9 53.4
23:05 1022 30.18 852 25.16 13.9 57.1 87 11.8 53.2
23:10 1022 30.18 852 25.16 14 57.2 87 11.8 53.3
23:15 1022 30.18 852 25.16 14 57.2 84 11.4 52.5
23:20 1022 30.18 852 25.16 14.1 57.3 85 11.7 53
23:25 1022 30.18 852 25.16 14.1 57.3 86 11.8 53.2
23:30 1022 30.18 851 25.13 14 57.2 86 11.7 53
23:35 1022 30.18 851 25.13 14 57.2 85 11.5 52.6
23:40 1022 30.18 851 25.13 14.1 57.3 86 11.7 53.1
23:45 1022 30.18 851 25.13 14 57.2 87 11.9 53.5
23:50 1022 30.18 852 25.16 13.8 56.9 88 12 53.6
23:55 1022 30.18 852 25.16 13.7 56.7 89 11.9 53.5
24:00 1022 30.18 852 25.16 13.7 56.6 89 11.9 53.5